Time;durP1;ratioP1;P1;durP2;ratioP2;P2;SDS_P1;SDS_P2;PMS_P1;PMS_P2;Temp;Humidity;BMP_temperature;BMP_pressure;BME280_temperature;BME280_humidity;BME280_pressure;Samples;Min_cycle;Max_cycle;Signal;HPM_P1;HPM_P2
2023/08/14 00:00:34;;;;;;;;;;;;;;;34.49;31.45;98454.47;5080268;27;20330;-82
2023/08/14 00:03:01;;;;;;;;;;;;;;;34.53;31.68;98454.28;5070405;28;19925;-82
2023/08/14 00:05:27;;;;;;;;;;;;;;;34.56;30.78;98459.00;5078928;27;20695;-82
2023/08/14 00:07:53;;;;;;;;;;;;;;;34.68;31.10;98460.72;5079563;28;19920;-82
2023/08/14 00:10:19;;;;;;;;;;;;;;;34.80;31.46;98462.44;5079732;28;20269;-82
2023/08/14 00:12:45;;;;;;;;;;;;;;;34.80;30.93;98456.72;5081947;27;19931;-82
2023/08/14 00:15:11;;;;;;;;;;;;;;;34.89;31.17;98455.81;5086039;27;19920;-82
2023/08/14 00:17:37;;;;;;;;;;;;;;;34.39;31.67;98455.09;5077821;27;19928;-82
2023/08/14 00:20:04;;;;;;;;;;;;;;;34.12;31.55;98458.31;5082031;27;19916;-82
2023/08/14 00:22:30;;;;;;;;;;;;;;;34.33;31.97;98452.13;5076858;27;20428;-82
2023/08/14 00:24:56;;;;;;;;;;;;;;;34.39;31.73;98447.31;5084417;27;19940;-82
2023/08/14 00:27:24;;;;;;;;;;;;;;;34.34;31.32;98447.22;5075014;27;19927;-82
2023/08/14 00:29:50;;;;;;;;;;;;;;;34.34;31.76;98442.31;5074845;27;20456;-82
2023/08/14 00:32:16;;;;;;;;;;;;;;;34.27;31.71;98451.28;5075127;27;19963;-82
2023/08/14 00:34:42;;;;;;;;;;;;;;;34.08;32.34;98445.03;5083289;27;20039;-82
2023/08/14 00:37:08;;;;;;;;;;;;;;;33.70;33.04;98456.53;5083660;27;20012;-82
2023/08/14 00:39:34;;;;;;;;;;;;;;;33.22;34.04;98453.03;5074499;27;20432;-82
2023/08/14 00:42:00;;;;;;;;;;;;;;;33.02;33.92;98455.75;5088965;27;19928;-82
2023/08/14 00:44:28;;;;;;;;;;;;;;;32.95;34.22;98464.63;5083062;27;20296;-82
2023/08/14 00:46:54;;;;;;;;;;;;;;;33.29;33.51;98464.03;5085017;27;20444;-82
2023/08/14 00:49:20;;;;;;;;;;;;;;;33.80;32.06;98457.22;5078890;27;19924;-82
2023/08/14 00:51:46;;;;;;;;;;;;;;;34.05;31.64;98468.06;5078066;27;19959;-82
2023/08/14 00:54:12;;;;;;;;;;;;;;;34.04;32.31;98470.13;5073879;27;19921;-82
2023/08/14 00:56:39;;;;;;;;;;;;;;;34.03;32.02;98474.22;5084503;27;20027;-82
2023/08/14 00:59:06;;;;;;;;;;;;;;;33.96;32.17;98473.81;5077211;27;20361;-82
2023/08/14 01:01:32;;;;;;;;;;;;;;;33.89;32.45;98474.19;5082823;27;19947;-82
2023/08/14 01:03:58;;;;;;;;;;;;;;;33.86;32.56;98486.59;5075264;27;19927;-82
2023/08/14 01:06:24;;;;;;;;;;;;;;;33.87;32.49;98483.25;5076257;27;19935;-82
2023/08/14 01:08:50;;;;;;;;;;;;;;;34.01;31.91;98485.31;5078173;27;19948;-82
2023/08/14 01:11:23;;;;;;;;;;;;;;;34.30;30.88;98495.91;5069526;27;19932;-82
2023/08/14 01:14:07;;;;;;;;;;;;;;;34.49;31.40;98491.56;5080637;27;19996;-82
2023/08/14 01:16:40;;;;;;;;;;;;;;;34.63;30.59;98499.31;5057652;27;20273;-82
2023/08/14 01:19:09;;;;;;;;;;;;;;;34.31;31.23;98499.56;5081965;27;19998;-82
2023/08/14 01:21:54;;;;;;;;;;;;;;;34.22;31.71;98503.28;5079241;27;19921;-82
2023/08/14 01:24:24;;;;;;;;;;;;;;;33.80;32.60;98505.66;5073109;27;19965;-82
2023/08/14 01:26:50;;;;;;;;;;;;;;;33.63;32.66;98505.34;5071755;27;19925;-82
2023/08/14 01:29:17;;;;;;;;;;;;;;;33.48;32.49;98507.38;5078486;27;19927;-82
2023/08/14 01:31:43;;;;;;;;;;;;;;;33.34;32.65;98505.28;5079845;27;20014;-82
2023/08/14 01:34:09;;;;;;;;;;;;;;;33.43;32.79;98517.38;5075483;27;19946;-82
2023/08/14 01:36:38;;;;;;;;;;;;;;;33.90;32.26;98510.78;5081974;27;20470;-82
2023/08/14 01:39:15;;;;;;;;;;;;;;;33.91;31.69;98509.47;5078927;27;20393;-82
2023/08/14 01:41:58;;;;;;;;;;;;;;;34.03;32.05;98511.28;5082935;27;20428;-82
2023/08/14 01:44:26;;;;;;;;;;;;;;;34.02;32.41;98501.16;5074748;28;19927;-82
2023/08/14 01:46:53;;;;;;;;;;;;;;;34.08;31.85;98509.81;5074689;27;19969;-82
2023/08/14 01:49:19;;;;;;;;;;;;;;;34.13;31.64;98511.97;5078750;28;19928;-82
2023/08/14 01:51:46;;;;;;;;;;;;;;;34.31;30.90;98505.28;5077292;27;19920;-82
2023/08/14 01:54:12;;;;;;;;;;;;;;;34.65;30.96;98504.50;5082269;27;19999;-82
2023/08/14 01:56:38;;;;;;;;;;;;;;;34.85;30.04;98506.59;5079361;27;20011;-82
2023/08/14 01:59:04;;;;;;;;;;;;;;;34.96;30.63;98510.38;5061281;27;20016;-83
2023/08/14 02:01:30;;;;;;;;;;;;;;;35.04;30.69;98510.75;5083252;27;19928;-82
2023/08/14 02:03:56;;;;;;;;;;;;;;;35.11;30.37;98511.13;5080021;27;19924;-82
2023/08/14 02:06:22;;;;;;;;;;;;;;;34.84;30.63;98517.25;5065430;27;19969;-82
2023/08/14 02:08:48;;;;;;;;;;;;;;;34.74;31.23;98510.88;5080579;28;20437;-82
2023/08/14 02:11:14;;;;;;;;;;;;;;;34.27;31.72;98510.38;5074390;27;20011;-83
2023/08/14 02:13:40;;;;;;;;;;;;;;;33.80;32.66;98517.03;5059314;27;20030;-82
2023/08/14 02:16:06;;;;;;;;;;;;;;;33.75;32.18;98517.75;5075057;27;20015;-82
2023/08/14 02:18:32;;;;;;;;;;;;;;;33.62;33.14;98520.09;5071168;27;20064;-82
2023/08/14 02:20:58;;;;;;;;;;;;;;;33.87;32.34;98516.66;5075312;27;20015;-82
2023/08/14 02:23:24;;;;;;;;;;;;;;;34.10;31.77;98507.25;5082935;27;19921;-82
2023/08/14 02:25:53;;;;;;;;;;;;;;;34.33;31.39;98511.25;5080947;27;19984;-82
2023/08/14 02:28:19;;;;;;;;;;;;;;;34.33;31.15;98503.47;5075976;27;19965;-83
2023/08/14 02:30:45;;;;;;;;;;;;;;;34.48;31.32;98509.94;5087183;27;19920;-83
2023/08/14 02:33:12;;;;;;;;;;;;;;;34.02;31.51;98512.53;5085145;27;19931;-82
2023/08/14 02:35:38;;;;;;;;;;;;;;;33.99;32.42;98510.66;5055869;27;19970;-82
2023/08/14 02:38:05;;;;;;;;;;;;;;;33.56;33.06;98508.56;5076001;27;19925;-82
2023/08/14 02:40:31;;;;;;;;;;;;;;;33.36;33.30;98508.44;5080688;27;19975;-82
2023/08/14 02:42:58;;;;;;;;;;;;;;;33.53;33.05;98508.78;5075526;27;19939;-82
2023/08/14 02:45:24;;;;;;;;;;;;;;;33.71;32.16;98509.38;5074915;27;20047;-83
2023/08/14 02:47:50;;;;;;;;;;;;;;;33.97;32.05;98510.38;5077576;27;20047;-82
2023/08/14 02:50:16;;;;;;;;;;;;;;;34.25;31.97;98518.63;5071063;27;19953;-82
2023/08/14 02:52:42;;;;;;;;;;;;;;;34.40;31.19;98511.59;5070185;27;19932;-82
2023/08/14 02:55:08;;;;;;;;;;;;;;;34.63;30.87;98513.56;5075518;27;19920;-82
2023/08/14 02:57:34;;;;;;;;;;;;;;;34.33;31.46;98517.72;5078138;27;19920;-83
2023/08/14 03:00:01;;;;;;;;;;;;;;;34.02;32.14;98521.09;5072575;27;19951;-82
2023/08/14 03:02:26;;;;;;;;;;;;;;;34.27;31.45;98514.00;5075670;27;20014;-82
2023/08/14 03:04:54;;;;;;;;;;;;;;;34.09;31.68;98528.47;5080650;27;20069;-82
2023/08/14 03:07:20;;;;;;;;;;;;;;;34.24;31.83;98528.47;5079647;27;19925;-82
2023/08/14 03:09:46;;;;;;;;;;;;;;;34.50;31.23;98523.69;5079172;27;19921;-82
2023/08/14 03:12:12;;;;;;;;;;;;;;;34.58;31.03;98533.44;5070850;27;20407;-83
2023/08/14 03:14:38;;;;;;;;;;;;;;;34.67;30.53;98531.25;5058864;27;19921;-82
2023/08/14 03:17:04;;;;;;;;;;;;;;;34.83;30.66;98526.28;5079041;27;20014;-82
2023/08/14 03:19:30;;;;;;;;;;;;;;;34.35;31.29;98522.94;5072147;27;20012;-82
2023/08/14 03:21:56;;;;;;;;;;;;;;;34.11;31.27;98527.97;5076982;27;19993;-83
2023/08/14 03:24:22;;;;;;;;;;;;;;;33.92;31.46;98528.16;5078608;27;19927;-82
2023/08/14 03:26:49;;;;;;;;;;;;;;;34.06;31.66;98524.56;5078500;27;19916;-82
2023/08/14 03:29:15;;;;;;;;;;;;;;;34.29;31.53;98527.75;5077953;27;19920;-82
2023/08/14 03:31:41;;;;;;;;;;;;;;;34.51;30.73;98531.78;5074421;27;19924;-82
2023/08/14 03:34:07;;;;;;;;;;;;;;;34.54;30.95;98525.09;5082306;27;19924;-83
2023/08/14 03:36:33;;;;;;;;;;;;;;;34.59;30.89;98532.94;5074047;27;20027;-82
2023/08/14 03:38:59;;;;;;;;;;;;;;;34.66;30.55;98528.88;5076123;27;19960;-82
2023/08/14 03:41:25;;;;;;;;;;;;;;;34.40;30.94;98525.88;5059206;27;19924;-83
2023/08/14 03:43:51;;;;;;;;;;;;;;;34.14;31.57;98539.19;5075048;28;19925;-82
2023/08/14 03:46:17;;;;;;;;;;;;;;;34.08;31.07;98532.59;5071769;28;19917;-83
2023/08/14 03:48:43;;;;;;;;;;;;;;;33.91;31.72;98531.50;5079603;27;19920;-82
2023/08/14 03:51:09;;;;;;;;;;;;;;;34.15;31.59;98534.25;5080738;27;20280;-82
2023/08/14 03:53:35;;;;;;;;;;;;;;;34.42;31.17;98540.44;5063015;27;20278;-82
2023/08/14 03:56:01;;;;;;;;;;;;;;;34.58;31.29;98545.66;5077027;28;19920;-83
2023/08/14 03:58:27;;;;;;;;;;;;;;;34.36;31.27;98542.41;5072011;27;19926;-83
2023/08/14 04:00:53;;;;;;;;;;;;;;;34.57;30.48;98546.91;5075773;27;19925;-82
2023/08/14 04:03:19;;;;;;;;;;;;;;;34.73;29.80;98549.22;5070649;27;20329;-82
2023/08/14 04:05:45;;;;;;;;;;;;;;;34.78;30.59;98555.50;5071874;27;19924;-83
2023/08/14 04:08:11;;;;;;;;;;;;;;;34.37;31.21;98558.25;5071238;27;20685;-83
2023/08/14 04:10:38;;;;;;;;;;;;;;;34.25;31.16;98553.63;5075155;27;19963;-83
2023/08/14 04:13:04;;;;;;;;;;;;;;;34.12;31.70;98544.63;5080307;27;20416;-83
2023/08/14 04:15:31;;;;;;;;;;;;;;;33.99;32.13;98546.91;5081715;27;19989;-83
2023/08/14 04:17:57;;;;;;;;;;;;;;;34.13;31.57;98551.06;5073621;27;19939;-82
2023/08/14 04:20:23;;;;;;;;;;;;;;;34.29;31.34;98542.81;5080485;27;20386;-83
2023/08/14 04:22:49;;;;;;;;;;;;;;;34.49;31.05;98542.09;5076007;27;20053;-83
2023/08/14 04:25:18;;;;;;;;;;;;;;;34.76;31.52;98538.91;5078921;27;19943;-83
2023/08/14 04:27:44;;;;;;;;;;;;;;;34.54;31.01;98541.44;5083599;27;19932;-82
2023/08/14 04:30:10;;;;;;;;;;;;;;;34.69;31.42;98542.97;5079244;27;19928;-83
2023/08/14 04:32:36;;;;;;;;;;;;;;;34.87;30.51;98544.75;5075910;27;19928;-83
2023/08/14 04:35:03;;;;;;;;;;;;;;;35.10;31.21;98549.50;5074616;27;20011;-83
2023/08/14 04:37:29;;;;;;;;;;;;;;;34.78;31.13;98544.88;5074173;27;19938;-83
2023/08/14 04:39:55;;;;;;;;;;;;;;;34.69;31.24;98551.50;5075409;27;20274;-84
2023/08/14 04:42:21;;;;;;;;;;;;;;;34.84;31.37;98548.63;5057276;27;19928;-85
2023/08/14 04:44:47;;;;;;;;;;;;;;;34.84;32.02;98536.41;5080031;27;19917;-85
2023/08/14 04:47:13;;;;;;;;;;;;;;;34.68;32.29;98543.47;5073228;27;19973;-86
2023/08/14 04:49:39;;;;;;;;;;;;;;;34.36;32.29;98536.69;5075752;27;19921;-85
2023/08/14 04:52:05;;;;;;;;;;;;;;;34.14;32.10;98539.19;5080781;27;19916;-85
2023/08/14 04:54:32;;;;;;;;;;;;;;;34.24;32.05;98546.34;5075048;27;19920;-86
2023/08/14 04:56:58;;;;;;;;;;;;;;;34.37;31.48;98537.50;5069796;27;20292;-85
2023/08/14 04:59:24;;;;;;;;;;;;;;;34.51;31.84;98542.38;5081074;27;19922;-85
2023/08/14 05:01:50;;;;;;;;;;;;;;;34.49;32.31;98545.75;5073532;27;19924;-84
2023/08/14 05:04:16;;;;;;;;;;;;;;;34.69;31.29;98542.97;5076629;27;19916;-84
2023/08/14 05:06:42;;;;;;;;;;;;;;;34.76;31.85;98538.91;5077593;27;20333;-84
2023/08/14 05:09:08;;;;;;;;;;;;;;;35.20;32.38;98547.31;5081785;27;20020;-85
2023/08/14 05:11:34;;;;;;;;;;;;;;;35.33;30.01;98539.97;5081009;27;19924;-87
2023/08/14 05:14:00;;;;;;;;;;;;;;;35.23;31.29;98543.47;5089176;27;20018;-87
2023/08/14 05:16:26;;;;;;;;;;;;;;;35.24;30.95;98542.94;5082757;27;19986;-86
2023/08/14 05:18:52;;;;;;;;;;;;;;;35.61;31.13;98548.88;5077609;27;19920;-87
2023/08/14 05:21:18;;;;;;;;;;;;;;;35.84;31.15;98553.56;5089682;27;19932;-87
2023/08/14 05:23:44;;;;;;;;;;;;;;;36.22;29.20;98545.88;5054184;27;22045;-88
2023/08/14 05:26:10;;;;;;;;;;;;;;;36.15;28.82;98554.91;5083989;27;20491;-87
2023/08/14 05:28:36;;;;;;;;;;;;;;;36.08;28.21;98556.16;5083278;27;19916;-88
2023/08/14 05:31:02;;;;;;;;;;;;;;;36.04;28.92;98558.44;5089404;27;19999;-87
2023/08/14 05:33:28;;;;;;;;;;;;;;;35.92;28.85;98571.81;5081080;27;20447;-87
2023/08/14 05:35:54;;;;;;;;;;;;;;;35.94;28.31;98577.81;5085133;27;19920;-86
2023/08/14 05:38:20;;;;;;;;;;;;;;;36.31;27.93;98575.09;5092214;27;19927;-86
2023/08/14 05:40:46;;;;;;;;;;;;;;;36.62;27.21;98582.88;5072893;28;19957;-87
2023/08/14 05:43:12;;;;;;;;;;;;;;;36.94;28.09;98583.66;5072615;27;19924;-87
2023/08/14 05:45:41;;;;;;;;;;;;;;;36.95;29.38;98577.44;5087276;27;19942;-87
2023/08/14 05:48:07;;;;;;;;;;;;;;;36.91;29.16;98582.63;5091670;27;20269;-87
2023/08/14 05:50:33;;;;;;;;;;;;;;;36.97;30.22;98583.41;5080661;27;19927;-87
2023/08/14 05:53:09;;;;;;;;;;;;;;;36.96;29.52;98579.00;5087280;28;19912;-87
2023/08/14 05:55:36;;;;;;;;;;;;;;;37.03;27.88;98584.25;5084781;27;19918;-87
2023/08/14 05:58:03;;;;;;;;;;;;;;;37.17;26.43;98582.50;5072257;27;19921;-87
2023/08/14 06:00:29;;;;;;;;;;;;;;;37.20;26.94;98582.25;5073480;27;19924;-87
2023/08/14 06:02:56;;;;;;;;;;;;;;;37.28;26.71;98574.75;5081995;27;19920;-87
2023/08/14 06:05:22;;;;;;;;;;;;;;;37.44;27.72;98578.25;5080924;27;19925;-87
2023/08/14 06:07:49;;;;;;;;;;;;;;;37.70;28.39;98584.56;5071603;27;19916;-87
2023/08/14 06:10:15;;;;;;;;;;;;;;;38.04;28.24;98589.88;5058411;27;20316;-88
2023/08/14 06:12:41;;;;;;;;;;;;;;;37.96;29.11;98590.94;5080679;27;20381;-87
2023/08/14 06:15:08;;;;;;;;;;;;;;;37.87;27.63;98588.31;5080339;27;19937;-87
2023/08/14 06:17:34;;;;;;;;;;;;;;;37.91;27.88;98592.47;5086547;27;19921;-87
2023/08/14 06:20:00;;;;;;;;;;;;;;;37.84;27.58;98593.00;5060702;27;19966;-88
2023/08/14 06:22:26;;;;;;;;;;;;;;;37.42;28.32;98593.06;5057614;27;20019;-88
2023/08/14 06:24:52;;;;;;;;;;;;;;;37.12;28.07;98592.63;5069214;27;19924;-89
2023/08/14 06:27:18;;;;;;;;;;;;;;;36.95;27.94;98588.88;5071722;27;20014;-89
2023/08/14 06:29:44;;;;;;;;;;;;;;;36.66;28.28;98589.19;5076377;27;20452;-87
2023/08/14 06:32:10;;;;;;;;;;;;;;;36.98;27.78;98605.03;5073432;27;19927;-88
2023/08/14 06:34:36;;;;;;;;;;;;;;;36.98;27.04;98589.94;5082062;27;19962;-88
2023/08/14 06:37:02;;;;;;;;;;;;;;;36.65;29.31;98593.31;5076114;27;19921;-88
2023/08/14 06:39:29;;;;;;;;;;;;;;;37.01;28.49;98600.38;5084421;27;19924;-87
2023/08/14 06:41:55;;;;;;;;;;;;;;;37.51;27.84;98594.94;5068399;27;19963;-87
2023/08/14 06:44:21;;;;;;;;;;;;;;;37.75;27.00;98603.88;5071591;27;19979;-85
2023/08/14 06:46:47;;;;;;;;;;;;;;;37.75;25.99;98604.66;5069771;27;19920;-85
2023/08/14 06:49:13;;;;;;;;;;;;;;;38.08;28.03;98604.00;5073230;27;19931;-85
2023/08/14 06:51:39;;;;;;;;;;;;;;;38.21;25.94;98598.53;5070825;27;19932;-85
2023/08/14 06:54:05;;;;;;;;;;;;;;;37.87;25.22;98599.78;5069456;27;19931;-84
2023/08/14 06:56:31;;;;;;;;;;;;;;;37.82;26.99;98600.50;5073883;27;20312;-84
2023/08/14 06:58:57;;;;;;;;;;;;;;;37.94;25.45;98599.28;5073291;27;19972;-84
2023/08/14 07:01:24;;;;;;;;;;;;;;;38.21;24.68;98604.25;5079261;27;19924;-84
2023/08/14 07:03:50;;;;;;;;;;;;;;;38.51;25.89;98611.09;5076545;27;19973;-85
2023/08/14 07:06:16;;;;;;;;;;;;;;;38.35;26.36;98614.75;5087769;27;20007;-85
2023/08/14 07:08:42;;;;;;;;;;;;;;;38.66;26.47;98611.63;5078897;27;20309;-85
2023/08/14 07:11:08;;;;;;;;;;;;;;;38.57;27.10;98620.50;5077302;27;19925;-85
2023/08/14 07:13:34;;;;;;;;;;;;;;;38.65;25.31;98615.03;5080313;27;19928;-85
2023/08/14 07:16:00;;;;;;;;;;;;;;;38.90;26.11;98619.75;5076354;27;19931;-86
2023/08/14 07:18:26;;;;;;;;;;;;;;;39.28;24.96;98615.25;5068952;27;20369;-84
2023/08/14 07:20:52;;;;;;;;;;;;;;;39.72;23.60;98618.00;5080762;27;19928;-84
2023/08/14 07:23:20;;;;;;;;;;;;;;;39.86;23.49;98616.09;5074739;27;19920;-83
2023/08/14 07:25:46;;;;;;;;;;;;;;;39.95;23.96;98610.81;5084003;27;20007;-83
2023/08/14 07:28:12;;;;;;;;;;;;;;;39.82;23.82;98619.22;5078210;27;19921;-88
2023/08/14 07:30:39;;;;;;;;;;;;;;;39.11;25.43;98612.38;5074297;27;20376;-87
2023/08/14 07:33:07;;;;;;;;;;;;;;;39.15;23.89;98615.00;5077756;27;19927;-87
2023/08/14 07:35:33;;;;;;;;;;;;;;;39.46;23.96;98620.41;5077081;27;19920;-88
2023/08/14 07:38:00;;;;;;;;;;;;;;;39.99;24.13;98611.28;5075889;27;19924;-87
2023/08/14 07:40:26;;;;;;;;;;;;;;;40.13;22.35;98614.38;5079655;27;19943;-86
2023/08/14 07:42:52;;;;;;;;;;;;;;;40.01;23.60;98608.69;5069378;28;19925;-86
2023/08/14 07:45:18;;;;;;;;;;;;;;;40.00;23.65;98612.84;5072515;28;19920;-86
2023/08/14 07:47:44;;;;;;;;;;;;;;;40.23;23.92;98609.88;5082697;28;20393;-87
2023/08/14 07:50:10;;;;;;;;;;;;;;;40.38;22.47;98610.25;5073990;28;20376;-86
2023/08/14 07:52:37;;;;;;;;;;;;;;;40.07;24.44;98608.66;5060986;28;20303;-87
2023/08/14 07:55:03;;;;;;;;;;;;;;;39.21;23.85;98607.19;5075821;28;19924;-85
2023/08/14 07:57:29;;;;;;;;;;;;;;;39.48;24.73;98602.63;5082205;28;20006;-85
2023/08/14 07:59:55;;;;;;;;;;;;;;;40.06;22.73;98614.94;5079045;27;19932;-87
2023/08/14 08:02:21;;;;;;;;;;;;;;;39.63;22.52;98603.88;5086405;28;19924;-85
2023/08/14 08:04:48;;;;;;;;;;;;;;;39.43;24.06;98604.22;5082813;28;20289;-86
2023/08/14 08:07:14;;;;;;;;;;;;;;;39.88;23.76;98605.59;5085786;28;20296;-85
2023/08/14 08:09:40;;;;;;;;;;;;;;;39.92;24.95;98608.19;5086233;28;19924;-85
2023/08/14 08:12:07;;;;;;;;;;;;;;;40.23;22.25;98606.97;5086063;27;19930;-85
2023/08/14 08:14:33;;;;;;;;;;;;;;;40.08;23.42;98610.22;5092943;27;19920;-84
2023/08/14 08:16:59;;;;;;;;;;;;;;;39.71;25.71;98607.00;5088868;27;19920;-85
2023/08/14 08:19:25;;;;;;;;;;;;;;;39.65;25.34;98607.03;5078379;27;20308;-84
2023/08/14 08:21:51;;;;;;;;;;;;;;;40.18;23.52;98611.47;5061755;27;19928;-84
2023/08/14 08:24:18;;;;;;;;;;;;;;;40.20;23.72;98611.72;5067922;27;19920;-85
2023/08/14 08:26:44;;;;;;;;;;;;;;;39.90;23.06;98610.81;5078638;27;20389;-84
2023/08/14 08:29:10;;;;;;;;;;;;;;;39.90;23.30;98616.56;5082498;27;19971;-84
2023/08/14 08:31:36;;;;;;;;;;;;;;;39.93;24.34;98613.41;5076805;27;19921;-84
2023/08/14 08:34:02;;;;;;;;;;;;;;;40.38;22.89;98616.00;5077465;28;19954;-84
2023/08/14 08:36:28;;;;;;;;;;;;;;;39.90;25.72;98613.69;5077551;28;19971;-84
2023/08/14 08:38:54;;;;;;;;;;;;;;;40.03;23.35;98625.41;5076228;27;19920;-85
2023/08/14 08:41:30;;;;;;;;;;;;;;;40.43;23.78;98620.94;5072984;27;19932;-85
2023/08/14 08:44:03;;;;;;;;;;;;;;;40.67;22.24;98618.19;5071213;27;19924;-84
2023/08/14 08:46:34;;;;;;;;;;;;;;;40.41;23.11;98620.72;5074293;27;19924;-88
2023/08/14 08:49:02;;;;;;;;;;;;;;;40.53;22.43;98619.34;5081912;28;19968;-81
2023/08/14 08:51:29;;;;;;;;;;;;;;;40.43;23.05;98618.91;5076456;28;19943;-84
2023/08/14 08:53:55;;;;;;;;;;;;;;;40.60;22.30;98616.66;5075594;27;19928;-83
2023/08/14 08:56:21;;;;;;;;;;;;;;;40.43;23.29;98615.19;5064080;27;20710;-82
2023/08/14 08:58:47;;;;;;;;;;;;;;;40.65;22.18;98617.94;5072006;27;19921;-82
2023/08/14 09:01:13;;;;;;;;;;;;;;;40.46;22.73;98614.16;5077685;28;20014;-84
2023/08/14 09:03:40;;;;;;;;;;;;;;;40.36;21.99;98610.00;5086572;28;20007;-87
2023/08/14 09:06:06;;;;;;;;;;;;;;;40.45;24.49;98612.59;5069358;28;19958;-84
2023/08/14 09:08:32;;;;;;;;;;;;;;;41.11;21.35;98612.03;5076315;27;20301;-87
2023/08/14 09:10:58;;;;;;;;;;;;;;;40.49;22.24;98610.22;5077278;27;19928;-89
2023/08/14 09:13:24;;;;;;;;;;;;;;;40.25;22.18;98604.34;5083637;28;19920;-84
2023/08/14 09:15:51;;;;;;;;;;;;;;;40.55;21.08;98605.19;5077592;28;19943;-83
2023/08/14 09:18:17;;;;;;;;;;;;;;;40.60;19.83;98607.25;5077067;28;19929;-83
2023/08/14 09:20:45;;;;;;;;;;;;;;;40.23;21.52;98606.97;5076595;27;21399;-83
2023/08/14 09:23:14;;;;;;;;;;;;;;;40.60;21.93;98598.59;5080891;27;19924;-83
2023/08/14 09:25:41;;;;;;;;;;;;;;;40.54;20.58;98595.00;5078063;28;20285;-84
